»·PEaware :: AAL343 KSEA-KGEG

AAL343 :: KSEA-KGEG

FLIGHT INFORMATION

Flight Status: Arrived
Operator:
American Airlines
More flights by this operator :: More flights under this callsign
Pilot: James W. (12414)
Aircraft: BOEING 737-800
(B738)
More flights by this aircraft type
Origin: KSEA Seattle-Tacoma Intl
United States
Destination: KGEG Spokane Intl
United States
More flights between these airports :: More routes between these airports
Route: ZADON ZELAK ZIRAN ZOOMR ZOOMR1
File this flight plan on PilotEdge
Remarks:
Altitude:
(Current/Filed)
270ft
Speed:
(Current/Filed)
500kts
Departed: 23-May-18 04:41 PM
Arrived: 23-May-18 05:20 PM
Distance/Time
Traveled:
194nm/0:39
Distance/Time
To Go:
Arrived

Flight Plot

Page will automatically refresh every two minutes.


Map Options




Map Legend


Flown Route
Filed Route
Departure Airport
Arrival Airport
Navaid (VOR, NDB)
Fix

Horizontal Profiles

Position Reports

Time Latitude Longitude Heading Altitude Ground
Speed
23-May-18 16:10 47.446969 -122.299220 187 441ft 0kts
23-May-18 16:11 47.446969 -122.299220 187 441ft 0kts
23-May-18 16:12 47.446969 -122.299220 187 441ft 0kts
23-May-18 16:13 47.446969 -122.299220 187 441ft 0kts
23-May-18 16:14 47.446969 -122.299220 187 441ft 0kts
23-May-18 16:15 47.446969 -122.299220 187 441ft 0kts
23-May-18 16:16 47.446969 -122.299220 187 441ft 0kts
23-May-18 16:17 47.446969 -122.299220 187 441ft 0kts
23-May-18 16:18 47.446969 -122.299220 187 441ft 0kts
23-May-18 16:19 47.446969 -122.299220 187 441ft 0kts
23-May-18 16:20 47.446969 -122.299220 187 441ft 0kts
23-May-18 16:21 47.446969 -122.299220 187 441ft 0kts
23-May-18 16:22 47.446969 -122.299220 187 441ft 0kts
23-May-18 16:23 47.446969 -122.299220 187 441ft 0kts
23-May-18 16:24 47.446969 -122.299220 187 441ft 0kts
23-May-18 16:25 47.446969 -122.299220 187 441ft 0kts
23-May-18 16:26 47.446969 -122.299220 187 441ft 0kts
23-May-18 16:27 47.446969 -122.299220 187 441ft 0kts
23-May-18 16:28 47.446969 -122.299220 187 441ft 0kts
23-May-18 16:29 47.446969 -122.299220 187 441ft 0kts
23-May-18 16:30 47.446969 -122.299220 187 441ft 0kts
23-May-18 16:31 47.446970 -122.299220 187 441ft 0kts
23-May-18 16:32 47.447306 -122.299125 233 441ft 1kts
23-May-18 16:33 47.447259 -122.298805 320 441ft 0kts
23-May-18 16:34 47.447260 -122.298805 320 441ft 0kts
23-May-18 16:35 47.447594 -122.299399 294 441ft 11kts
23-May-18 16:36 47.447536 -122.303901 310 441ft 9kts
23-May-18 16:37 47.448236 -122.305707 280 441ft 10kts
23-May-18 16:38 47.454272 -122.306206 0 441ft 25kts
23-May-18 16:39 47.461653 -122.306193 358 441ft 26kts
23-May-18 16:40 47.463705 -122.306995 261 441ft 9kts
23-May-18 16:41 47.447375 -122.307846 181 442ft 176kts
23-May-18 16:42 47.388591 -122.307441 180 2471ft 224kts
23-May-18 16:43 47.319622 -122.305068 175 4660ft 272kts
23-May-18 16:44 47.272066 -122.227604 90 6804ft 287kts
23-May-18 16:45 47.318172 -122.143000 13 8961ft 292kts
23-May-18 16:46 47.372449 -122.056036 61 11117ft 307kts
23-May-18 16:47 47.412692 -121.943263 63 13233ft 325kts
23-May-18 16:48 47.456114 -121.819088 62 15322ft 361kts
23-May-18 16:49 47.506330 -121.677480 62 16552ft 417kts
23-May-18 16:50 47.563168 -121.526665 74 18921ft 433kts
23-May-18 16:51 47.558273 -121.347981 92 21181ft 448kts
23-May-18 16:52 47.553779 -121.163128 91 23219ft 461kts
23-May-18 16:53 47.549941 -120.975980 91 25520ft 463kts
23-May-18 16:54 47.546267 -120.785088 91 26800ft 470kts
23-May-18 16:55 47.542931 -120.596819 91 26778ft 464kts
23-May-18 16:56 47.539749 -120.406339 92 26765ft 464kts
23-May-18 16:57 47.529993 -120.220929 95 26766ft 464kts
23-May-18 16:58 47.518440 -120.029650 95 25822ft 479kts
23-May-18 16:59 47.506871 -119.835478 95 24846ft 480kts
23-May-18 17:00 47.496238 -119.652626 95 23763ft 429kts
23-May-18 17:01 47.486426 -119.479880 94 21782ft 416kts
23-May-18 17:02 47.478077 -119.329157 95 19983ft 406kts
23-May-18 17:03 47.469985 -119.179593 95 18156ft 396kts
23-May-18 17:04 47.461556 -119.019911 94 16155ft 385kts
23-May-18 17:05 47.453609 -118.865698 94 14154ft 370kts
23-May-18 17:06 47.446119 -118.716936 93 12153ft 358kts
23-May-18 17:07 47.439532 -118.583221 93 11918ft 303kts
23-May-18 17:08 47.433632 -118.460670 93 11840ft 304kts
23-May-18 17:09 47.427910 -118.339434 93 9859ft 315kts
23-May-18 17:10 47.444157 -118.216115 73 7827ft 313kts
23-May-18 17:11 47.469354 -118.094287 73 5753ft 311kts
23-May-18 17:12 47.492004 -117.984200 73 4974ft 239kts
23-May-18 17:13 47.500497 -117.897521 93 4074ft 191kts
23-May-18 17:14 47.496114 -117.822478 94 4025ft 161kts
23-May-18 17:15 47.505326 -117.761590 74 4010ft 150kts
23-May-18 17:16 47.516915 -117.702274 74 4008ft 150kts
23-May-18 17:17 47.541602 -117.653293 47 4010ft 152kts
23-May-18 17:18 47.571608 -117.608026 47 3474ft 152kts
23-May-18 17:19 47.600789 -117.564048 46 2695ft 148kts
23-May-18 17:20 47.623549 -117.529790 44 2379ft 35kts
23-May-18 17:21 47.627223 -117.527474 325 2379ft 13kts
23-May-18 17:22 47.625150 -117.532805 291 2379ft 15kts

Navigation Log

Ident Type
Flight plan parsing failed, navigation log unavailable